Time;durP1;ratioP1;P1;durP2;ratioP2;P2;SDS_P1;SDS_P2;PMS_P1;PMS_P2;Temp;Humidity;BMP_temperature;BMP_pressure;BME280_temperature;BME280_humidity;BME280_pressure;Samples;Min_cycle;Max_cycle;Signal;HPM_P1;HPM_P2
2023/03/17 00:00:53;;;;;;;;;;;20.80;50.50;;;;;;4866775;55;20140;-33
2023/03/17 00:05:55;;;;;;;;;;;20.80;50.40;;;;;;4918742;55;20128;-35
2023/03/17 00:10:56;;;;;;;;;;;20.80;50.40;;;;;;4845842;55;20152;-33
2023/03/17 00:16:01;;;;;;;;;;;20.80;50.50;;;;;;4867857;55;20069;-33
2023/03/17 00:21:01;;;;;;;;;;;20.80;50.90;;;;;;4812097;55;20143;-33
2023/03/17 00:26:02;;;;;;;;;;;20.80;50.40;;;;;;4751182;58;20346;-34
2023/03/17 00:31:10;;;;;;;;;;;20.80;50.30;;;;;;4751787;58;20099;-33
2023/03/17 00:36:21;;;;;;;;;;;20.80;50.20;;;;;;4773119;55;20113;-33
2023/03/17 00:41:22;;;;;;;;;;;20.80;50.10;;;;;;4852310;55;20304;-32
2023/03/17 00:46:36;;;;;;;;;;;20.80;50.20;;;;;;4751235;56;20065;-34
2023/03/17 00:51:37;;;;;;;;;;;20.80;50.10;;;;;;4990393;55;20299;-33
2023/03/17 00:56:38;;;;;;;;;;;20.80;50.00;;;;;;4957986;55;20061;-35
2023/03/17 01:01:39;;;;;;;;;;;20.80;50.10;;;;;;4885685;55;20059;-34
2023/03/17 01:06:39;;;;;;;;;;;20.80;50.10;;;;;;4750659;58;20287;-35
2023/03/17 01:11:40;;;;;;;;;;;20.80;50.20;;;;;;5220203;55;20064;-32
2023/03/17 01:16:41;;;;;;;;;;;20.80;50.00;;;;;;4853018;55;20307;-32
2023/03/17 01:21:42;;;;;;;;;;;20.80;50.00;;;;;;4751868;58;20069;-33
2023/03/17 01:26:43;;;;;;;;;;;20.80;50.00;;;;;;4849756;55;20330;-34
2023/03/17 01:31:44;;;;;;;;;;;20.70;49.90;;;;;;4978659;55;20081;-34
2023/03/17 01:36:46;;;;;;;;;;;20.70;49.90;;;;;;4848204;55;20291;-31
2023/03/17 01:41:47;;;;;;;;;;;20.80;50.00;;;;;;5068274;55;20355;-29
2023/03/17 01:46:48;;;;;;;;;;;20.70;50.10;;;;;;4777228;55;20064;-30
2023/03/17 01:52:50;;;;;;;;;;;20.70;49.90;;;;;;4824603;55;20366;-35
2023/03/17 01:57:53;;;;;;;;;;;20.70;49.80;;;;;;4751094;58;20299;-33
2023/03/17 02:02:55;;;;;;;;;;;20.70;49.60;;;;;;5157800;55;20417;-33
2023/03/17 02:07:55;;;;;;;;;;;20.70;49.70;;;;;;4752243;58;20294;-30
2023/03/17 02:12:58;;;;;;;;;;;20.70;49.70;;;;;;5021126;55;20056;-35
2023/03/17 02:17:58;;;;;;;;;;;20.70;49.60;;;;;;4808732;55;20068;-34
2023/03/17 02:23:00;;;;;;;;;;;20.70;49.70;;;;;;4840020;55;20092;-35
2023/03/17 02:28:07;;;;;;;;;;;20.70;49.60;;;;;;4918628;55;20283;-35
2023/03/17 02:33:08;;;;;;;;;;;20.70;49.60;;;;;;4824248;55;20283;-34
2023/03/17 02:38:09;;;;;;;;;;;20.70;50.00;;;;;;4832855;55;20310;-35
2023/03/17 02:43:09;;;;;;;;;;;20.70;49.60;;;;;;5026001;55;20124;-35
2023/03/17 02:48:10;;;;;;;;;;;20.70;49.50;;;;;;4783720;55;20124;-32
2023/03/17 02:53:11;;;;;;;;;;;20.70;49.60;;;;;;5238702;55;20358;-35
2023/03/17 02:58:12;;;;;;;;;;;20.70;49.60;;;;;;5062053;54;20063;-33
2023/03/17 03:03:13;;;;;;;;;;;20.70;49.50;;;;;;4768558;55;20088;-33
2023/03/17 03:08:14;;;;;;;;;;;20.70;49.50;;;;;;4860228;55;20068;-33
2023/03/17 03:13:14;;;;;;;;;;;20.60;49.40;;;;;;5209773;55;20065;-36
2023/03/17 03:18:15;;;;;;;;;;;20.70;49.60;;;;;;4752100;58;20053;-34
2023/03/17 03:23:16;;;;;;;;;;;20.70;49.60;;;;;;4763380;55;20294;-33
2023/03/17 03:28:16;;;;;;;;;;;20.60;49.30;;;;;;4761084;55;20068;-35
2023/03/17 03:33:17;;;;;;;;;;;20.70;49.30;;;;;;5067869;55;20108;-36
2023/03/17 03:38:18;;;;;;;;;;;20.60;49.30;;;;;;4768092;55;20076;-35
2023/03/17 03:43:18;;;;;;;;;;;20.60;49.20;;;;;;4792438;55;20092;-35
2023/03/17 03:48:20;;;;;;;;;;;20.60;49.40;;;;;;4775146;55;20068;-35
2023/03/17 03:53:20;;;;;;;;;;;20.60;49.10;;;;;;4870755;55;20112;-32
2023/03/17 03:58:21;;;;;;;;;;;20.60;49.10;;;;;;4820474;54;20279;-35
2023/03/17 04:03:21;;;;;;;;;;;20.60;49.20;;;;;;4874420;55;20108;-35
2023/03/17 04:08:22;;;;;;;;;;;20.60;49.20;;;;;;4751564;58;20116;-34
2023/03/17 04:13:23;;;;;;;;;;;20.60;49.30;;;;;;4984789;55;20088;-34
2023/03/17 04:18:24;;;;;;;;;;;20.60;49.30;;;;;;5042846;55;20355;-33
2023/03/17 04:23:25;;;;;;;;;;;20.60;49.10;;;;;;4944145;55;20540;-33
2023/03/17 04:28:25;;;;;;;;;;;20.60;49.10;;;;;;4818398;55;20056;-34
2023/03/17 04:33:26;;;;;;;;;;;20.60;49.10;;;;;;4751686;58;20298;-36
2023/03/17 04:38:27;;;;;;;;;;;20.60;49.40;;;;;;4842961;55;20073;-36
2023/03/17 04:43:27;;;;;;;;;;;20.60;49.40;;;;;;4753453;55;20125;-35
2023/03/17 04:48:28;;;;;;;;;;;20.60;49.40;;;;;;4751482;55;20116;-35
2023/03/17 04:53:29;;;;;;;;;;;20.60;50.10;;;;;;4751803;58;20358;-35
2023/03/17 04:58:29;;;;;;;;;;;20.60;49.40;;;;;;4754694;55;20048;-34
2023/03/17 05:03:30;;;;;;;;;;;20.60;49.50;;;;;;4751604;58;20116;-35
2023/03/17 05:08:31;;;;;;;;;;;20.60;49.50;;;;;;4837376;55;20068;-32
2023/03/17 05:13:32;;;;;;;;;;;20.50;49.50;;;;;;4773072;55;20292;-33
2023/03/17 05:18:33;;;;;;;;;;;20.50;49.40;;;;;;4899267;55;20056;-35
2023/03/17 05:23:34;;;;;;;;;;;20.50;49.40;;;;;;4994849;55;20080;-35
2023/03/17 05:28:35;;;;;;;;;;;20.50;49.50;;;;;;4781920;55;20077;-35
2023/03/17 05:33:36;;;;;;;;;;;20.50;49.50;;;;;;4975634;55;20324;-35
2023/03/17 05:38:36;;;;;;;;;;;20.50;49.40;;;;;;4844374;55;20057;-34
2023/03/17 05:43:37;;;;;;;;;;;20.50;49.40;;;;;;5119331;55;20061;-36
2023/03/17 05:48:38;;;;;;;;;;;20.50;49.40;;;;;;4793861;55;20072;-32
2023/03/17 05:53:38;;;;;;;;;;;20.50;49.40;;;;;;4752221;58;20105;-32
2023/03/17 05:58:39;;;;;;;;;;;20.50;49.40;;;;;;4807103;54;20119;-34
2023/03/17 06:03:40;;;;;;;;;;;20.50;49.40;;;;;;4895037;55;20129;-30
2023/03/17 06:08:41;;;;;;;;;;;20.50;49.30;;;;;;4761427;55;20299;-34
2023/03/17 06:13:42;;;;;;;;;;;20.50;49.40;;;;;;5046317;55;20069;-33
2023/03/17 06:18:43;;;;;;;;;;;20.50;49.40;;;;;;4752282;55;20109;-35
2023/03/17 06:23:44;;;;;;;;;;;20.50;49.40;;;;;;4751774;58;20298;-35
2023/03/17 06:28:45;;;;;;;;;;;20.50;49.30;;;;;;4793603;55;20120;-35
2023/03/17 06:33:46;;;;;;;;;;;20.50;49.20;;;;;;4751827;58;20064;-34
2023/03/17 06:38:47;;;;;;;;;;;20.60;49.20;;;;;;4815313;55;20282;-38
2023/03/17 06:43:47;;;;;;;;;;;20.50;49.20;;;;;;4785792;55;20057;-40
2023/03/17 06:48:48;;;;;;;;;;;20.50;48.80;;;;;;4991529;55;20295;-33
2023/03/17 06:53:49;;;;;;;;;;;20.50;49.10;;;;;;4850054;55;20068;-32
2023/03/17 06:58:50;;;;;;;;;;;20.50;49.20;;;;;;4985266;55;20116;-35
2023/03/17 07:03:51;;;;;;;;;;;20.50;49.20;;;;;;4814963;55;20374;-33
2023/03/17 07:08:52;;;;;;;;;;;20.50;49.10;;;;;;5014190;55;20113;-35
2023/03/17 07:13:52;;;;;;;;;;;20.50;49.10;;;;;;4850894;55;20088;-35
2023/03/17 07:18:54;;;;;;;;;;;20.50;49.10;;;;;;4804996;55;20127;-35
2023/03/17 07:23:55;;;;;;;;;;;20.50;49.10;;;;;;4782529;55;20309;-33
2023/03/17 07:28:56;;;;;;;;;;;20.50;49.20;;;;;;5040677;55;20052;-34
2023/03/17 07:33:56;;;;;;;;;;;20.50;49.10;;;;;;4821561;55;20061;-34
2023/03/17 07:38:57;;;;;;;;;;;20.50;49.20;;;;;;4823545;55;20187;-32
2023/03/17 07:43:58;;;;;;;;;;;20.50;49.10;;;;;;5056484;55;20307;-35
2023/03/17 07:48:58;;;;;;;;;;;20.50;49.20;;;;;;4776409;55;20120;-31
2023/03/17 07:54:05;;;;;;;;;;;20.50;49.10;;;;;;5095860;55;20339;-34
2023/03/17 07:59:09;;;;;;;;;;;20.50;49.10;;;;;;5071786;55;20348;-25
2023/03/17 08:04:12;;;;;;;;;;;20.50;48.90;;;;;;4778552;55;20291;-31
2023/03/17 08:09:12;;;;;;;;;;;20.50;49.10;;;;;;4866456;55;20362;-29
2023/03/17 08:14:13;;;;;;;;;;;20.50;49.20;;;;;;4934203;55;20064;-33
2023/03/17 08:19:14;;;;;;;;;;;20.60;50.30;;;;;;4750784;58;20363;-31
2023/03/17 08:24:14;;;;;;;;;;;20.70;52.40;;;;;;4752498;55;20072;-27
2023/03/17 08:29:15;;;;;;;;;;;20.70;54.00;;;;;;4754606;55;20121;-36
2023/03/17 08:34:16;;;;;;;;;;;20.70;54.00;;;;;;4779841;55;20120;-33
2023/03/17 08:39:16;;;;;;;;;;;20.80;56.40;;;;;;4754096;55;20294;-46
2023/03/17 08:44:18;;;;;;;;;;;20.80;59.50;;;;;;4786620;55;20331;-44
2023/03/17 08:49:19;;;;;;;;;;;20.80;62.10;;;;;;4827349;55;20328;-45
2023/03/17 08:54:20;;;;;;;;;;;20.80;61.20;;;;;;4773030;55;20081;-25
2023/03/17 08:59:20;;;;;;;;;;;20.80;60.40;;;;;;4777046;55;20159;-43
2023/03/17 09:04:22;;;;;;;;;;;20.90;59.60;;;;;;4783127;55;20057;-47
2023/03/17 09:09:22;;;;;;;;;;;20.80;59.50;;;;;;4751421;58;20318;-39
2023/03/17 09:14:23;;;;;;;;;;;20.90;59.10;;;;;;4831978;55;20080;-40
2023/03/17 09:19:24;;;;;;;;;;;20.90;59.00;;;;;;4870456;55;20215;-26
2023/03/17 09:24:24;;;;;;;;;;;20.90;58.80;;;;;;4896771;55;20144;-37
2023/03/17 09:29:26;;;;;;;;;;;20.90;58.70;;;;;;4785558;55;20068;-38
2023/03/17 09:34:26;;;;;;;;;;;20.90;58.50;;;;;;4751003;58;20342;-34
2023/03/17 09:39:27;;;;;;;;;;;20.90;58.90;;;;;;4750639;56;20069;-46
2023/03/17 09:44:46;;;;;;;;;;;20.90;58.60;;;;;;4974315;55;20060;-29
2023/03/17 09:49:50;;;;;;;;;;;21.00;58.20;;;;;;4761265;55;20073;-37
2023/03/17 09:54:50;;;;;;;;;;;21.00;58.30;;;;;;4843581;55;20354;-40
2023/03/17 09:59:57;;;;;;;;;;;21.00;58.30;;;;;;4819025;55;20097;-48
2023/03/17 10:04:58;;;;;;;;;;;21.00;57.50;;;;;;4773995;55;20422;-25
2023/03/17 10:10:13;;;;;;;;;;;21.00;57.30;;;;;;4775080;55;20143;-42
2023/03/17 10:16:20;;;;;;;;;;;21.00;57.10;;;;;;4797766;55;20412;-38
2023/03/17 10:21:23;;;;;;;;;;;21.00;56.90;;;;;;4762336;55;20084;-42
2023/03/17 10:26:39;;;;;;;;;;;21.00;56.60;;;;;;4749596;58;20172;-44
2023/03/17 10:31:40;;;;;;;;;;;21.00;56.20;;;;;;4789672;55;20370;-30
2023/03/17 10:36:45;;;;;;;;;;;21.00;56.00;;;;;;4811457;55;20072;-46
2023/03/17 10:43:09;;;;;;;;;;;21.00;56.10;;;;;;4826424;55;20358;-39
2023/03/17 10:48:16;;;;;;;;;;;21.00;56.10;;;;;;4774836;55;20279;-45
2023/03/17 10:53:26;;;;;;;;;;;21.00;56.00;;;;;;4805784;55;20161;-47
2023/03/17 10:58:35;;;;;;;;;;;21.00;56.00;;;;;;4750234;58;20299;-46
2023/03/17 11:03:38;;;;;;;;;;;21.00;56.00;;;;;;4750855;55;20080;-41
2023/03/17 11:08:40;;;;;;;;;;;21.10;56.00;;;;;;4816380;55;20080;-23
2023/03/17 11:13:41;;;;;;;;;;;21.10;56.10;;;;;;4759707;55;20068;-35
2023/03/17 11:18:42;;;;;;;;;;;21.10;56.10;;;;;;4807697;55;20084;-33
2023/03/17 11:23:48;;;;;;;;;;;21.10;56.10;;;;;;4839650;55;20064;-38
2023/03/17 11:28:53;;;;;;;;;;;21.10;56.30;;;;;;4795261;55;20052;-35
2023/03/17 11:34:01;;;;;;;;;;;21.10;56.20;;;;;;4798801;55;20124;-42
2023/03/17 11:39:14;;;;;;;;;;;21.10;56.30;;;;;;4778123;55;20335;-26
2023/03/17 11:44:34;;;;;;;;;;;21.10;56.40;;;;;;4852212;55;20068;-41
2023/03/17 11:49:36;;;;;;;;;;;21.20;56.40;;;;;;4812745;55;20295;-37
2023/03/17 11:54:55;;;;;;;;;;;21.20;56.90;;;;;;4791740;55;20940;-42
2023/03/17 12:00:06;;;;;;;;;;;21.20;55.90;;;;;;4756902;55;20100;-39
2023/03/17 12:05:08;;;;;;;;;;;21.10;55.80;;;;;;4750708;58;20080;-26
2023/03/17 12:10:21;;;;;;;;;;;21.10;55.80;;;;;;4861824;55;20354;-34
2023/03/17 12:16:08;;;;;;;;;;;21.10;55.60;;;;;;4817315;55;20073;-45
2023/03/17 12:21:13;;;;;;;;;;;21.10;55.20;;;;;;4750739;58;20366;-48
2023/03/17 12:26:26;;;;;;;;;;;21.10;55.30;;;;;;4752647;55;20345;-40
2023/03/17 12:31:37;;;;;;;;;;;21.10;55.30;;;;;;4880276;55;20351;-40
2023/03/17 12:36:38;;;;;;;;;;;21.10;55.40;;;;;;4818634;55;20199;-24
2023/03/17 12:41:58;;;;;;;;;;;21.20;55.50;;;;;;4888804;55;20124;-33
2023/03/17 12:50:06;;;;;;;;;;;21.20;55.60;;;;;;4760581;55;20425;-45
2023/03/17 12:55:11;;;;;;;;;;;21.20;55.60;;;;;;4750026;58;20072;-27
2023/03/17 13:00:28;;;;;;;;;;;21.20;55.20;;;;;;4756179;55;20299;-35
2023/03/17 13:05:31;;;;;;;;;;;21.20;55.80;;;;;;4806418;55;20349;-38
2023/03/17 13:10:42;;;;;;;;;;;21.20;55.70;;;;;;4772313;55;20307;-33
2023/03/17 13:15:51;;;;;;;;;;;21.20;55.70;;;;;;4908535;55;20060;-31
2023/03/17 13:21:12;;;;;;;;;;;21.20;55.80;;;;;;4862699;55;20060;-23
2023/03/17 13:26:20;;;;;;;;;;;21.20;55.70;;;;;;4800384;55;20153;-32
2023/03/17 13:31:54;;;;;;;;;;;21.20;55.60;;;;;;4787061;55;20355;-25
2023/03/17 13:37:04;;;;;;;;;;;21.20;55.80;;;;;;4829894;55;20065;-48
2023/03/17 13:43:10;;;;;;;;;;;21.20;55.70;;;;;;4806100;55;20335;-21
2023/03/17 13:48:31;;;;;;;;;;;21.20;55.70;;;;;;4823688;55;20071;-34
2023/03/17 13:53:34;;;;;;;;;;;21.20;55.70;;;;;;4785161;55;20298;-34
2023/03/17 13:58:48;;;;;;;;;;;21.20;55.70;;;;;;4751977;55;20294;-30
2023/03/17 14:03:50;;;;;;;;;;;21.30;55.80;;;;;;4774756;55;20084;-29
2023/03/17 14:08:52;;;;;;;;;;;21.30;56.10;;;;;;4778982;55;20287;-38
2023/03/17 14:14:11;;;;;;;;;;;21.30;56.10;;;;;;4773555;55;20120;-42
2023/03/17 14:19:26;;;;;;;;;;;21.20;55.50;;;;;;4768861;55;20131;-33
2023/03/17 14:24:31;;;;;;;;;;;21.20;55.60;;;;;;4979038;55;20329;-35
2023/03/17 14:29:32;;;;;;;;;;;21.20;55.60;;;;;;4761105;55;20299;-33
2023/03/17 14:34:33;;;;;;;;;;;21.10;55.50;;;;;;4847678;55;20277;-34
2023/03/17 14:39:33;;;;;;;;;;;21.10;55.40;;;;;;4832347;55;20116;-34
2023/03/17 14:44:35;;;;;;;;;;;21.10;55.30;;;;;;4751619;58;20084;-36
2023/03/17 14:49:36;;;;;;;;;;;21.10;55.30;;;;;;4845117;55;20073;-36
2023/03/17 14:54:43;;;;;;;;;;;21.10;55.20;;;;;;4780316;55;20061;-34
2023/03/17 14:59:55;;;;;;;;;;;21.00;55.10;;;;;;4751774;58;20080;-34
2023/03/17 15:04:57;;;;;;;;;;;21.00;55.10;;;;;;4861458;55;20287;-36
2023/03/17 15:10:00;;;;;;;;;;;21.00;55.10;;;;;;5036978;55;20112;-35
2023/03/17 15:16:53;;;;;;;;;;;21.00;54.90;;;;;;4866699;55;20529;-32
2023/03/17 15:21:58;;;;;;;;;;;21.00;54.90;;;;;;4770488;55;20069;-34
2023/03/17 15:27:09;;;;;;;;;;;20.90;54.80;;;;;;4797472;55;20128;-34
2023/03/17 15:32:14;;;;;;;;;;;20.90;54.80;;;;;;4784930;55;20291;-34
2023/03/17 15:37:20;;;;;;;;;;;20.90;54.70;;;;;;4751907;55;20060;-34
2023/03/17 15:42:29;;;;;;;;;;;20.90;54.70;;;;;;4918963;55;20187;-34
2023/03/17 15:47:31;;;;;;;;;;;20.90;54.60;;;;;;5057366;55;20307;-33
2023/03/17 15:52:32;;;;;;;;;;;20.90;54.60;;;;;;4785817;55;20123;-33
2023/03/17 15:57:32;;;;;;;;;;;20.90;54.50;;;;;;4750132;58;20120;-33
2023/03/17 16:02:34;;;;;;;;;;;20.90;54.60;;;;;;4751135;58;20084;-34
2023/03/17 16:07:35;;;;;;;;;;;20.90;54.50;;;;;;4955144;55;20124;-35
2023/03/17 16:12:37;;;;;;;;;;;20.90;54.50;;;;;;4844873;55;20120;-35
2023/03/17 16:17:38;;;;;;;;;;;20.90;54.50;;;;;;4751696;58;20314;-35
2023/03/17 16:22:40;;;;;;;;;;;20.80;54.40;;;;;;4772412;55;20068;-34
2023/03/17 16:27:41;;;;;;;;;;;20.90;54.40;;;;;;4832195;55;20263;-32
2023/03/17 16:32:41;;;;;;;;;;;20.80;54.30;;;;;;4835113;55;20128;-32
2023/03/17 16:37:42;;;;;;;;;;;20.80;54.30;;;;;;4801196;55;20342;-36
2023/03/17 16:42:44;;;;;;;;;;;20.80;54.30;;;;;;4758976;55;20076;-31
2023/03/17 16:47:44;;;;;;;;;;;20.80;54.20;;;;;;4780976;55;20327;-33
2023/03/17 16:52:45;;;;;;;;;;;20.80;54.10;;;;;;4781732;55;20064;-29
2023/03/17 16:57:47;;;;;;;;;;;20.80;54.50;;;;;;4826895;54;20322;-31
2023/03/17 17:02:48;;;;;;;;;;;20.80;54.00;;;;;;4823876;55;20072;-34
2023/03/17 17:07:49;;;;;;;;;;;20.80;53.90;;;;;;4751282;58;20108;-34
2023/03/17 17:12:50;;;;;;;;;;;20.80;53.90;;;;;;4885268;55;20370;-34
2023/03/17 17:17:53;;;;;;;;;;;20.80;53.80;;;;;;4802525;55;20108;-33
2023/03/17 17:22:54;;;;;;;;;;;20.80;53.90;;;;;;4847701;55;20076;-31
2023/03/17 17:27:55;;;;;;;;;;;20.80;53.80;;;;;;4751387;58;20111;-25
2023/03/17 17:32:57;;;;;;;;;;;20.80;53.80;;;;;;4804997;55;20052;-28
2023/03/17 17:37:58;;;;;;;;;;;20.80;53.70;;;;;;4757530;55;20061;-33
2023/03/17 17:42:59;;;;;;;;;;;20.80;53.60;;;;;;4751703;58;20076;-33
2023/03/17 17:47:59;;;;;;;;;;;20.80;53.70;;;;;;4822327;55;20072;-34
2023/03/17 17:53:04;;;;;;;;;;;20.80;53.60;;;;;;4947747;55;20299;-34
2023/03/17 17:58:05;;;;;;;;;;;20.80;53.60;;;;;;4880905;54;20294;-34
2023/03/17 18:03:05;;;;;;;;;;;20.70;53.50;;;;;;4827394;55;20057;-32
2023/03/17 18:08:06;;;;;;;;;;;20.80;54.00;;;;;;4843843;55;20354;-30
2023/03/17 18:13:07;;;;;;;;;;;20.70;53.40;;;;;;4871501;55;20137;-31
2023/03/17 18:18:07;;;;;;;;;;;20.80;53.40;;;;;;4777893;55;20061;-32
2023/03/17 18:23:08;;;;;;;;;;;20.70;53.40;;;;;;4800155;55;20108;-30
2023/03/17 18:28:09;;;;;;;;;;;20.70;53.40;;;;;;4839892;55;20080;-31
2023/03/17 18:33:12;;;;;;;;;;;20.70;53.20;;;;;;4867979;55;20112;-33
2023/03/17 18:38:13;;;;;;;;;;;20.70;53.20;;;;;;4813616;55;20072;-32
2023/03/17 18:43:13;;;;;;;;;;;20.70;53.80;;;;;;4751377;55;20307;-35
2023/03/17 18:48:14;;;;;;;;;;;20.70;53.20;;;;;;4828078;55;20068;-35
2023/03/17 18:53:15;;;;;;;;;;;20.70;53.10;;;;;;4927426;55;20056;-34
2023/03/17 18:58:15;;;;;;;;;;;20.70;53.20;;;;;;4751946;58;20119;-35
2023/03/17 19:03:17;;;;;;;;;;;20.70;53.10;;;;;;4762671;55;20088;-35
2023/03/17 19:08:19;;;;;;;;;;;20.70;53.10;;;;;;4752111;58;20308;-35
2023/03/17 19:13:20;;;;;;;;;;;20.70;53.10;;;;;;4870181;55;20303;-34
2023/03/17 19:18:20;;;;;;;;;;;20.70;53.00;;;;;;4752153;55;20072;-35
2023/03/17 19:23:22;;;;;;;;;;;20.70;53.00;;;;;;4751737;55;20080;-34
2023/03/17 19:28:22;;;;;;;;;;;20.70;52.90;;;;;;4769243;55;20088;-35
2023/03/17 19:33:23;;;;;;;;;;;20.70;52.90;;;;;;4751955;58;20081;-36
2023/03/17 19:38:24;;;;;;;;;;;20.70;52.90;;;;;;5010034;55;20080;-35
2023/03/17 19:43:25;;;;;;;;;;;20.70;52.80;;;;;;4751952;58;20310;-34
2023/03/17 19:48:26;;;;;;;;;;;20.70;52.70;;;;;;4871881;55;20058;-34
2023/03/17 19:53:27;;;;;;;;;;;20.70;52.70;;;;;;4773372;55;20322;-33
2023/03/17 19:58:27;;;;;;;;;;;20.70;52.70;;;;;;4751663;58;20120;-35
2023/03/17 20:03:28;;;;;;;;;;;20.70;52.80;;;;;;4751936;55;20108;-36
2023/03/17 20:08:29;;;;;;;;;;;20.70;52.70;;;;;;4903200;55;20073;-34
2023/03/17 20:13:30;;;;;;;;;;;20.70;52.70;;;;;;4790776;55;20311;-34
2023/03/17 20:18:31;;;;;;;;;;;20.70;52.50;;;;;;4771396;55;20077;-35
2023/03/17 20:23:32;;;;;;;;;;;20.70;52.50;;;;;;5175215;55;20310;-34
2023/03/17 20:28:32;;;;;;;;;;;20.70;52.60;;;;;;4952972;55;20052;-35
2023/03/17 20:33:33;;;;;;;;;;;20.70;52.40;;;;;;4752036;55;20299;-35
2023/03/17 20:38:37;;;;;;;;;;;20.70;52.40;;;;;;4776738;55;20120;-35
2023/03/17 20:43:39;;;;;;;;;;;20.70;52.40;;;;;;4751754;56;20302;-34
2023/03/17 20:48:40;;;;;;;;;;;20.70;53.00;;;;;;4752101;55;20354;-35
2023/03/17 20:53:41;;;;;;;;;;;20.70;52.40;;;;;;4805353;55;20287;-35
2023/03/17 20:58:44;;;;;;;;;;;20.70;52.30;;;;;;4933752;55;20116;-35
2023/03/17 21:03:45;;;;;;;;;;;20.70;52.30;;;;;;4846820;55;20342;-35
2023/03/17 21:08:45;;;;;;;;;;;20.70;52.30;;;;;;4812911;55;20298;-35
2023/03/17 21:13:46;;;;;;;;;;;20.70;52.10;;;;;;4860348;55;20069;-35
2023/03/17 21:18:47;;;;;;;;;;;20.70;52.10;;;;;;4784369;55;20072;-36
2023/03/17 21:23:48;;;;;;;;;;;20.70;52.20;;;;;;4824982;55;20310;-34
2023/03/17 21:28:49;;;;;;;;;;;20.70;52.10;;;;;;4890215;55;20291;-35
2023/03/17 21:33:49;;;;;;;;;;;20.70;52.00;;;;;;4772510;55;20073;-36
2023/03/17 21:38:50;;;;;;;;;;;20.70;51.90;;;;;;4752000;55;20072;-35
2023/03/17 21:43:51;;;;;;;;;;;20.70;52.00;;;;;;4907259;55;20068;-35
2023/03/17 21:48:52;;;;;;;;;;;20.70;51.90;;;;;;4826020;55;20064;-35
2023/03/17 21:53:53;;;;;;;;;;;20.70;51.90;;;;;;4751608;58;20407;-34
2023/03/17 21:58:54;;;;;;;;;;;20.70;51.80;;;;;;4798717;55;20073;-35
2023/03/17 22:03:55;;;;;;;;;;;20.60;51.80;;;;;;4878007;55;20065;-34
2023/03/17 22:08:55;;;;;;;;;;;20.60;51.70;;;;;;4804523;55;20060;-35
2023/03/17 22:13:57;;;;;;;;;;;20.60;51.70;;;;;;4882057;55;20339;-36
2023/03/17 22:18:58;;;;;;;;;;;20.60;51.60;;;;;;4776791;55;20355;-35
2023/03/17 22:23:58;;;;;;;;;;;20.60;51.60;;;;;;4823914;55;20052;-34
2023/03/17 22:28:59;;;;;;;;;;;20.60;51.60;;;;;;4774793;55;20354;-36
2023/03/17 22:34:00;;;;;;;;;;;20.60;51.60;;;;;;4751893;58;20064;-37
2023/03/17 22:39:00;;;;;;;;;;;20.60;51.60;;;;;;4787882;55;20064;-36
2023/03/17 22:44:01;;;;;;;;;;;20.60;51.50;;;;;;4960508;55;20073;-33
2023/03/17 22:49:01;;;;;;;;;;;20.60;51.50;;;;;;4770540;55;20295;-35
2023/03/17 22:54:02;;;;;;;;;;;20.60;51.50;;;;;;4859421;55;20119;-35
2023/03/17 22:59:03;;;;;;;;;;;20.60;51.40;;;;;;4800161;55;20386;-35
2023/03/17 23:04:04;;;;;;;;;;;20.60;52.00;;;;;;4818041;55;20310;-35
2023/03/17 23:09:04;;;;;;;;;;;20.60;51.30;;;;;;4771492;55;20072;-35
2023/03/17 23:14:05;;;;;;;;;;;20.60;51.20;;;;;;4752064;55;20060;-35
2023/03/17 23:19:05;;;;;;;;;;;20.60;51.20;;;;;;4810279;55;20104;-34
2023/03/17 23:24:07;;;;;;;;;;;20.60;51.30;;;;;;4959270;55;20121;-34
2023/03/17 23:29:08;;;;;;;;;;;20.60;51.20;;;;;;4754718;55;20279;-35
2023/03/17 23:34:09;;;;;;;;;;;20.60;51.20;;;;;;4752163;58;20298;-33
2023/03/17 23:39:10;;;;;;;;;;;20.60;51.10;;;;;;4986742;55;20068;-34
2023/03/17 23:44:11;;;;;;;;;;;20.60;51.10;;;;;;5030790;55;20109;-33
2023/03/17 23:49:11;;;;;;;;;;;20.60;51.20;;;;;;4786468;55;20064;-36
2023/03/17 23:54:13;;;;;;;;;;;20.60;51.10;;;;;;4751750;58;20056;-35
2023/03/17 23:59:13;;;;;;;;;;;20.60;51.00;;;;;;4751708;58;20351;-36
